createdAt,value
2022-10-13T00:00:55.813Z,11.67
2022-10-13T00:03:23.992Z,9.63
2022-10-13T00:05:52.483Z,6.73
2022-10-13T00:08:26.082Z,8.70
2022-10-13T00:10:54.187Z,9.17
2022-10-13T00:13:22.236Z,9.03
2022-10-13T00:15:50.263Z,9.77
2022-10-13T00:18:19.717Z,7.00
2022-10-13T00:20:49.534Z,6.63
2022-10-13T00:23:18.510Z,8.10
2022-10-13T00:25:48.598Z,11.17
2022-10-13T00:28:19.009Z,9.20
2022-10-13T00:30:47.971Z,8.23
2022-10-13T00:33:16.401Z,10.33
2022-10-13T00:35:47.861Z,9.47
2022-10-13T00:38:17.007Z,9.90
2022-10-13T00:40:47.114Z,7.27
2022-10-13T00:43:20.506Z,10.40
2022-10-13T00:45:50.662Z,13.90
2022-10-13T00:48:20.231Z,8.57
2022-10-13T00:50:50.239Z,10.53
2022-10-13T00:53:21.915Z,7.87
2022-10-13T00:55:52.220Z,8.20
2022-10-13T00:58:23.110Z,8.60
2022-10-13T01:00:53.651Z,8.43
2022-10-13T01:03:22.396Z,6.93
2022-10-13T01:05:54.697Z,7.73
2022-10-13T01:08:26.927Z,7.23
2022-10-13T01:11:04.507Z,9.37
2022-10-13T01:13:40.472Z,7.83
2022-10-13T01:16:14.119Z,9.43
2022-10-13T01:18:49.457Z,8.37
2022-10-13T01:21:25.748Z,8.87
2022-10-13T01:24:29.444Z,10.90
2022-10-13T01:27:31.382Z,8.63
2022-10-13T01:30:19.242Z,11.13
2022-10-13T01:33:00.898Z,9.20
2022-10-13T01:35:37.867Z,9.13
2022-10-13T01:38:10.317Z,8.63
2022-10-13T01:40:43.965Z,6.80
2022-10-13T01:43:17.963Z,7.27
2022-10-13T01:45:51.983Z,9.07
2022-10-13T01:48:21.185Z,9.67
2022-10-13T01:50:50.650Z,8.87
2022-10-13T01:53:20.505Z,8.47
2022-10-13T01:55:53.346Z,12.07
2022-10-13T01:58:21.983Z,10.93
2022-10-13T02:01:14.794Z,8.83
2022-10-13T02:03:53.746Z,8.37
2022-10-13T02:06:25.098Z,12.90
2022-10-13T02:08:59.623Z,11.33
2022-10-13T02:11:29.155Z,8.77
2022-10-13T02:14:04.625Z,7.63
2022-10-13T02:16:37.722Z,6.83
2022-10-13T02:19:07.425Z,9.00
2022-10-13T02:21:36.915Z,7.40
2022-10-13T02:24:06.117Z,10.00
2022-10-13T02:26:35.250Z,9.87
2022-10-13T02:29:10.298Z,11.93
2022-10-13T02:31:40.677Z,9.93
2022-10-13T02:34:08.759Z,7.47
2022-10-13T02:36:37.850Z,8.33
2022-10-13T02:39:06.478Z,9.17
2022-10-13T02:41:34.540Z,13.00
2022-10-13T02:44:02.561Z,12.20
2022-10-13T02:46:30.554Z,8.50
2022-10-13T02:49:00.068Z,7.03
2022-10-13T02:51:28.217Z,9.40
2022-10-13T02:53:56.223Z,8.97
2022-10-13T02:56:24.298Z,10.07
2022-10-13T02:58:52.320Z,14.40
2022-10-13T03:01:20.352Z,10.07
2022-10-13T03:03:48.337Z,9.70
2022-10-13T03:06:17.761Z,9.33
2022-10-13T03:08:45.851Z,8.03
2022-10-13T03:11:13.960Z,13.73
2022-10-13T03:13:41.958Z,8.50
2022-10-13T03:16:10.275Z,11.13
2022-10-13T03:18:38.570Z,10.10
2022-10-13T03:21:08.004Z,12.60
2022-10-13T03:23:37.720Z,8.17
2022-10-13T03:26:06.599Z,8.37
2022-10-13T03:28:34.762Z,12.10
2022-10-13T03:31:04.136Z,11.57
2022-10-13T03:33:32.152Z,9.97
2022-10-13T03:36:01.928Z,10.27
2022-10-13T03:38:30.000Z,11.03
2022-10-13T03:40:59.471Z,7.00
2022-10-13T03:43:27.473Z,15.80
2022-10-13T03:45:59.238Z,10.97
2022-10-13T03:48:28.147Z,10.93
2022-10-13T03:50:56.462Z,12.50
2022-10-13T03:53:24.553Z,11.67
2022-10-13T03:55:53.496Z,12.97
2022-10-13T03:58:23.897Z,10.20
2022-10-13T04:03:22.746Z,9.80
2022-10-13T04:05:50.884Z,11.40
2022-10-13T04:08:19.893Z,9.20
2022-10-13T04:10:47.917Z,8.53
2022-10-13T04:13:15.899Z,9.87
2022-10-13T04:15:45.322Z,7.67
2022-10-13T04:18:13.351Z,12.47
2022-10-13T04:20:41.759Z,9.37
2022-10-13T04:23:09.988Z,10.87
2022-10-13T04:25:38.598Z,12.10
2022-10-13T04:28:07.822Z,9.70
2022-10-13T04:30:36.063Z,13.47
2022-10-13T04:33:05.476Z,13.20
2022-10-13T04:35:33.516Z,10.50
2022-10-13T04:38:01.530Z,7.50
2022-10-13T04:40:29.495Z,9.17
2022-10-13T04:42:57.468Z,7.93
2022-10-13T04:45:25.480Z,10.07
2022-10-13T04:47:53.495Z,8.10
2022-10-13T04:50:22.945Z,10.03
2022-10-13T04:52:50.966Z,11.17
2022-10-13T04:55:19.054Z,12.70
2022-10-13T04:57:47.087Z,10.13
2022-10-13T05:00:15.722Z,9.43
2022-10-13T05:02:43.767Z,8.80
2022-10-13T05:05:12.126Z,8.53
2022-10-13T05:07:41.509Z,8.87
2022-10-13T05:10:10.423Z,10.87
2022-10-13T05:12:38.393Z,10.23
2022-10-13T05:15:07.228Z,13.53
2022-10-13T05:17:35.691Z,11.70
2022-10-13T05:20:04.280Z,9.97
2022-10-13T05:22:32.359Z,7.10
2022-10-13T05:25:01.767Z,11.00
2022-10-13T05:27:29.719Z,8.57
2022-10-13T05:29:57.719Z,10.33
2022-10-13T05:32:25.831Z,10.23
2022-10-13T05:34:53.864Z,14.50
2022-10-13T05:37:22.510Z,12.07
2022-10-13T05:39:50.623Z,12.13
2022-10-13T05:42:20.287Z,9.57
2022-10-13T05:44:48.454Z,15.37
2022-10-13T05:47:16.592Z,10.97
2022-10-13T05:49:44.571Z,7.87
2022-10-13T05:52:13.650Z,9.97
2022-10-13T05:54:46.685Z,9.17
2022-10-13T05:57:20.437Z,10.83
2022-10-13T05:59:51.932Z,14.10
2022-10-13T06:02:23.159Z,13.73
2022-10-13T06:04:54.086Z,13.80
2022-10-13T06:07:22.279Z,9.27
2022-10-13T06:09:50.805Z,13.93
2022-10-13T06:12:20.601Z,13.60
2022-10-13T06:14:48.884Z,12.20
2022-10-13T06:17:16.956Z,12.40
2022-10-13T06:19:46.134Z,14.17
2022-10-13T06:22:14.215Z,10.63
2022-10-13T06:24:42.328Z,12.17
2022-10-13T06:27:10.938Z,12.40
2022-10-13T06:29:40.473Z,12.13
2022-10-13T06:32:08.699Z,13.10
2022-10-13T06:34:36.772Z,15.80
2022-10-13T06:37:04.791Z,15.23
2022-10-13T06:39:32.819Z,13.87
2022-10-13T06:42:00.833Z,13.30
2022-10-13T06:44:28.907Z,14.33
2022-10-13T06:46:58.290Z,12.90
2022-10-13T06:49:26.439Z,19.10
2022-10-13T06:51:54.407Z,13.73
2022-10-13T06:54:22.440Z,14.87
2022-10-13T06:56:51.319Z,11.73
2022-10-13T06:59:19.318Z,13.90
2022-10-13T07:01:48.616Z,13.80
2022-10-13T07:04:18.689Z,12.23
2022-10-13T07:06:46.694Z,17.90
2022-10-13T07:09:14.706Z,13.90
2022-10-13T07:11:45.680Z,15.27
2022-10-13T07:14:14.054Z,14.23
2022-10-13T07:16:42.423Z,12.63
2022-10-13T07:19:10.429Z,16.13
2022-10-13T07:21:39.802Z,18.13
2022-10-13T07:24:09.986Z,18.97
2022-10-13T07:26:38.102Z,16.00
2022-10-13T07:29:06.199Z,15.73
2022-10-13T07:31:34.286Z,14.97
2022-10-13T07:34:04.716Z,16.83
2022-10-13T07:36:52.285Z,16.70
2022-10-13T07:39:20.235Z,14.93
2022-10-13T07:41:51.076Z,18.23
2022-10-13T07:44:19.552Z,23.00
2022-10-13T07:46:47.855Z,15.87
2022-10-13T07:49:16.498Z,16.53
2022-10-13T07:51:44.853Z,19.47
2022-10-13T07:54:14.338Z,19.90
2022-10-13T07:56:42.321Z,16.23
2022-10-13T07:59:10.299Z,19.33
2022-10-13T08:01:38.473Z,19.53
2022-10-13T08:04:06.990Z,17.67
2022-10-13T08:06:35.082Z,20.57
2022-10-13T08:09:04.370Z,17.30
2022-10-13T08:11:33.890Z,15.07
2022-10-13T08:14:02.023Z,18.23
2022-10-13T08:16:31.106Z,21.17
2022-10-13T08:18:59.987Z,14.57
2022-10-13T08:24:18.525Z,15.50
2022-10-13T08:26:48.625Z,15.93
2022-10-13T08:29:21.907Z,15.63
2022-10-13T08:31:50.607Z,15.50
2022-10-13T08:34:18.763Z,18.30
2022-10-13T08:36:47.359Z,19.20
2022-10-13T08:39:15.547Z,18.40
2022-10-13T08:41:45.184Z,17.73
2022-10-13T08:47:19.479Z,22.37
2022-10-13T08:49:47.706Z,20.97
2022-10-13T08:52:20.838Z,24.67
2022-10-13T08:54:49.615Z,17.37
2022-10-13T08:57:18.728Z,17.80
2022-10-13T08:59:48.996Z,28.60
2022-10-13T09:02:27.099Z,21.70
2022-10-13T09:04:55.406Z,18.40
2022-10-13T09:07:27.710Z,24.63
2022-10-13T09:09:56.713Z,17.07
2022-10-13T09:12:25.903Z,22.77
2022-10-13T09:15:05.112Z,24.33
2022-10-13T09:17:34.442Z,23.50
2022-10-13T09:20:05.473Z,18.80
2022-10-13T09:22:35.794Z,20.70
2022-10-13T09:25:18.193Z,16.17
2022-10-13T09:27:49.311Z,19.53
2022-10-13T09:30:33.966Z,20.47
2022-10-13T09:33:21.845Z,21.13
2022-10-13T09:36:06.397Z,19.57
2022-10-13T09:38:35.879Z,22.13
2022-10-13T09:41:07.296Z,20.83
2022-10-13T09:43:38.663Z,17.50
2022-10-13T09:46:17.872Z,18.03
2022-10-13T09:48:50.205Z,18.07
2022-10-13T09:51:34.166Z,19.70
2022-10-13T09:54:02.232Z,22.90
2022-10-13T09:56:36.190Z,16.27
2022-10-13T09:59:15.828Z,16.83
2022-10-13T10:01:49.746Z,14.17
2022-10-13T10:04:23.075Z,18.30
2022-10-13T10:06:51.138Z,18.20
2022-10-13T10:09:37.689Z,16.00
2022-10-13T10:12:07.290Z,14.67
2022-10-13T10:14:38.392Z,19.27
2022-10-13T10:17:18.547Z,23.63
2022-10-13T10:19:56.845Z,16.37
2022-10-13T10:22:37.058Z,15.27
2022-10-13T10:25:22.831Z,22.10
2022-10-13T10:28:03.598Z,13.83
2022-10-13T10:30:32.426Z,13.77
2022-10-13T10:33:10.202Z,15.10
2022-10-13T10:35:46.036Z,16.07
2022-10-13T10:38:28.178Z,17.33
2022-10-13T10:41:06.069Z,19.83
2022-10-13T10:43:43.984Z,20.93
2022-10-13T10:46:18.161Z,12.97
2022-10-13T10:48:50.419Z,16.47
2022-10-13T10:51:19.814Z,18.40
2022-10-13T10:53:57.203Z,14.17
2022-10-13T10:56:31.601Z,15.43
2022-10-13T10:59:10.456Z,13.40
2022-10-13T11:01:43.554Z,13.10
2022-10-13T11:04:40.243Z,17.57
2022-10-13T11:07:35.074Z,15.93
2022-10-13T11:10:21.479Z,20.57
2022-10-13T11:13:22.539Z,16.07
2022-10-13T11:15:51.053Z,17.87
2022-10-13T11:18:55.578Z,17.27
2022-10-13T11:21:25.032Z,16.20
2022-10-13T11:23:53.205Z,14.70
2022-10-13T11:26:31.210Z,16.98
2022-10-13T11:28:59.928Z,17.27
2022-10-13T11:31:33.706Z,18.02
2022-10-13T11:34:04.633Z,14.60
2022-10-13T11:36:52.211Z,13.25
2022-10-13T11:39:51.621Z,16.95
2022-10-13T11:42:40.051Z,12.77
2022-10-13T11:45:21.776Z,10.30
2022-10-13T11:50:48.467Z,15.55
2022-10-13T11:53:19.391Z,15.38
2022-10-13T11:55:51.572Z,17.70
2022-10-13T11:58:22.615Z,19.35
2022-10-13T12:00:55.564Z,14.55
2022-10-13T12:03:28.770Z,16.23
2022-10-13T12:06:01.432Z,17.13
2022-10-13T12:08:33.686Z,14.77
2022-10-13T12:11:05.829Z,18.67
2022-10-13T12:13:35.186Z,12.70
2022-10-13T12:16:06.215Z,12.85
2022-10-13T12:18:38.161Z,23.95
2022-10-13T12:21:12.339Z,25.15
2022-10-13T12:23:41.989Z,20.75
2022-10-13T12:26:17.119Z,15.52
2022-10-13T12:28:50.665Z,14.98
2022-10-13T12:31:21.892Z,14.98
2022-10-13T12:33:58.202Z,14.80
2022-10-13T12:36:31.036Z,18.60
2022-10-13T12:39:05.074Z,12.57
2022-10-13T12:41:36.258Z,16.67
2022-10-13T12:44:06.805Z,15.25
2022-10-13T12:46:39.926Z,13.32
2022-10-13T12:49:08.399Z,12.73
2022-10-13T12:51:39.437Z,14.38
2022-10-13T12:54:10.590Z,12.43
2022-10-13T12:56:38.662Z,13.10
2022-10-13T12:59:07.112Z,14.77
2022-10-13T13:01:35.944Z,15.23
2022-10-13T13:04:18.189Z,18.30
2022-10-13T13:06:56.898Z,15.80
2022-10-13T13:09:31.567Z,17.60
2022-10-13T13:12:24.771Z,12.60
2022-10-13T13:14:55.149Z,12.57
2022-10-13T13:20:23.290Z,14.93
2022-10-13T13:22:51.970Z,14.23
2022-10-13T13:25:21.474Z,16.27
2022-10-13T13:27:49.520Z,14.75
2022-10-13T13:30:19.088Z,14.40
2022-10-13T13:32:47.389Z,14.07
2022-10-13T13:35:15.782Z,13.10
2022-10-13T13:37:47.860Z,15.88
2022-10-13T13:40:19.208Z,14.68
2022-10-13T13:42:48.636Z,17.15
2022-10-13T13:45:18.012Z,13.95
2022-10-13T13:47:46.146Z,13.95
2022-10-13T13:50:18.503Z,20.17
2022-10-13T13:52:46.563Z,12.73
2022-10-13T13:55:14.885Z,15.68
2022-10-13T13:57:43.354Z,16.65
2022-10-13T14:00:15.376Z,14.07
2022-10-13T14:02:44.880Z,15.90
2022-10-13T14:05:13.480Z,19.02
2022-10-13T14:07:41.943Z,24.73
2022-10-13T14:10:11.368Z,16.58
2022-10-13T14:12:39.742Z,20.50
2022-10-13T14:15:08.860Z,17.70
2022-10-13T14:17:38.273Z,16.42
2022-10-13T14:20:07.397Z,16.42
2022-10-13T14:22:37.798Z,15.60
2022-10-13T14:25:06.584Z,20.90
2022-10-13T14:27:34.964Z,16.60
2022-10-13T14:30:03.287Z,17.63
2022-10-13T14:32:31.290Z,14.55
2022-10-13T14:35:00.897Z,14.48
2022-10-13T14:37:33.082Z,13.02
2022-10-13T14:40:01.852Z,15.95
2022-10-13T14:42:29.970Z,10.60
2022-10-13T14:44:58.254Z,17.73
2022-10-13T14:47:26.289Z,15.32
2022-10-13T14:49:54.462Z,12.57
2022-10-13T14:52:24.452Z,12.45
2022-10-13T14:54:52.623Z,18.88
2022-10-13T14:57:21.099Z,12.90
2022-10-13T14:59:49.392Z,14.10
2022-10-13T15:02:18.021Z,13.90
2022-10-13T15:04:46.147Z,12.90
2022-10-13T15:07:14.668Z,13.13
2022-10-13T15:09:53.145Z,20.13
2022-10-13T15:12:29.215Z,14.40
2022-10-13T15:14:57.371Z,18.73
2022-10-13T15:17:25.520Z,14.63
2022-10-13T15:19:53.773Z,15.17
2022-10-13T15:22:22.062Z,15.48
2022-10-13T15:24:51.837Z,15.40
2022-10-13T15:27:19.962Z,15.55
2022-10-13T15:29:48.212Z,14.73
2022-10-13T15:32:18.543Z,15.63
2022-10-13T15:37:52.816Z,15.60
2022-10-13T15:40:22.412Z,17.00
2022-10-13T15:42:50.429Z,17.40
2022-10-13T15:45:18.570Z,13.23
2022-10-13T15:47:46.575Z,13.10
2022-10-13T15:50:15.091Z,12.07
2022-10-13T15:52:43.223Z,11.67
2022-10-13T15:55:13.336Z,11.63
2022-10-13T15:57:42.748Z,15.27
2022-10-13T16:00:13.604Z,12.80
2022-10-13T16:02:41.641Z,12.03
2022-10-13T16:05:11.602Z,20.50
2022-10-13T16:07:41.500Z,14.20
2022-10-13T16:10:10.757Z,12.37
2022-10-13T16:12:39.234Z,9.87
2022-10-13T16:15:10.430Z,12.13
2022-10-13T16:17:39.021Z,13.93
2022-10-13T16:20:08.890Z,11.97
2022-10-13T16:22:36.875Z,15.57
2022-10-13T16:25:05.154Z,13.43
2022-10-13T16:27:33.612Z,13.23
2022-10-13T16:30:01.643Z,11.67
2022-10-13T16:32:31.003Z,14.03
2022-10-13T16:34:58.981Z,14.10
2022-10-13T16:37:27.022Z,16.43
2022-10-13T16:39:55.057Z,15.60
2022-10-13T16:42:23.059Z,16.17
2022-10-13T16:44:51.021Z,16.83
2022-10-13T16:47:19.056Z,16.97
2022-10-13T16:49:48.565Z,17.73
2022-10-13T16:52:16.593Z,17.03
2022-10-13T16:54:44.673Z,29.70
2022-10-13T16:57:12.613Z,27.13
2022-10-13T16:59:40.577Z,27.30
2022-10-13T17:02:11.497Z,21.30
2022-10-13T17:04:39.443Z,15.27
2022-10-13T17:07:08.837Z,17.83
2022-10-13T17:09:36.797Z,18.37
2022-10-13T17:12:04.871Z,16.57
2022-10-13T17:14:32.916Z,15.40
2022-10-13T17:17:00.882Z,15.57
2022-10-13T17:19:28.864Z,16.33
2022-10-13T17:21:56.803Z,13.53
2022-10-13T17:24:26.202Z,14.37
2022-10-13T17:26:54.230Z,19.87
2022-10-13T17:29:22.203Z,17.47
2022-10-13T17:31:50.218Z,13.87
2022-10-13T17:34:18.171Z,17.90
2022-10-13T17:36:46.180Z,13.53
2022-10-13T17:39:14.193Z,14.90
2022-10-13T17:41:43.705Z,18.47
2022-10-13T17:44:12.379Z,12.80
2022-10-13T17:46:40.456Z,13.33
2022-10-13T17:49:10.960Z,11.73
2022-10-13T17:51:39.310Z,14.83
2022-10-13T17:54:11.477Z,18.87
2022-10-13T17:56:44.227Z,13.80
2022-10-13T17:59:12.219Z,14.30
2022-10-13T18:01:41.939Z,19.47
2022-10-13T18:04:13.613Z,28.17
2022-10-13T18:06:43.970Z,76.87
2022-10-13T18:09:14.562Z,97.90
2022-10-13T18:11:49.907Z,68.57
2022-10-13T18:14:19.068Z,67.30
2022-10-13T18:16:47.139Z,59.27
2022-10-13T18:19:15.239Z,51.53
2022-10-13T18:21:43.217Z,56.00
2022-10-13T18:24:11.896Z,51.77
2022-10-13T18:26:39.943Z,41.63
2022-10-13T18:29:11.285Z,44.17
2022-10-13T18:31:41.705Z,54.57
2022-10-13T18:34:11.998Z,53.37
2022-10-13T18:36:41.907Z,48.40
2022-10-13T18:39:13.190Z,41.90
2022-10-13T18:41:41.846Z,30.60
2022-10-13T18:44:11.495Z,34.73
2022-10-13T18:46:40.550Z,36.63
2022-10-13T18:49:12.341Z,21.77
2022-10-13T18:51:40.807Z,19.00
2022-10-13T18:54:09.605Z,18.23
2022-10-13T18:56:37.817Z,17.23
2022-10-13T18:59:07.659Z,14.40
2022-10-13T19:01:38.992Z,21.33
2022-10-13T19:04:08.628Z,14.33
2022-10-13T19:06:36.930Z,15.90
2022-10-13T19:09:07.124Z,16.20
2022-10-13T19:11:36.269Z,16.33
2022-10-13T19:14:06.951Z,13.40
2022-10-13T19:16:39.865Z,13.40
2022-10-13T19:19:09.245Z,13.93
2022-10-13T19:21:37.964Z,12.87
2022-10-13T19:24:06.613Z,18.80
2022-10-13T19:26:36.574Z,16.43
2022-10-13T19:29:07.044Z,16.17
2022-10-13T19:31:38.450Z,16.70
2022-10-13T19:34:06.422Z,14.90
2022-10-13T19:36:37.687Z,14.93
2022-10-13T19:39:09.250Z,14.43
2022-10-13T19:41:38.821Z,14.03
2022-10-13T19:44:06.986Z,11.90
2022-10-13T19:46:37.283Z,12.70
2022-10-13T19:49:05.788Z,12.00
2022-10-13T19:51:34.091Z,15.60
2022-10-13T19:54:02.182Z,17.00
2022-10-13T19:56:32.864Z,16.33
2022-10-13T19:59:01.330Z,19.03
2022-10-13T20:01:29.644Z,11.90
2022-10-13T20:03:59.459Z,11.70
2022-10-13T20:06:27.668Z,18.63
2022-10-13T20:08:55.655Z,14.23
2022-10-13T20:11:24.473Z,14.63
2022-10-13T20:13:53.770Z,12.30
2022-10-13T20:16:24.294Z,15.33
2022-10-13T20:18:53.828Z,11.93
2022-10-13T20:21:24.239Z,12.30
2022-10-13T20:23:52.992Z,10.43
2022-10-13T20:26:21.771Z,15.53
2022-10-13T20:28:51.227Z,16.07
2022-10-13T20:31:22.238Z,15.50
2022-10-13T20:33:53.921Z,11.87
2022-10-13T20:36:24.024Z,13.77
2022-10-13T20:38:52.229Z,10.77
2022-10-13T20:41:22.177Z,10.67
2022-10-13T20:43:50.972Z,13.37
2022-10-13T20:46:20.470Z,10.90
2022-10-13T20:51:39.196Z,12.93
2022-10-13T20:54:07.963Z,16.20
2022-10-13T20:56:36.033Z,10.60
2022-10-13T20:59:04.634Z,13.13
2022-10-13T21:01:33.653Z,11.63
2022-10-13T21:04:01.688Z,12.47
2022-10-13T21:06:29.855Z,12.53
2022-10-13T21:08:59.202Z,14.93
2022-10-13T21:11:27.198Z,17.07
2022-10-13T21:13:55.264Z,11.83
2022-10-13T21:16:27.392Z,12.53
2022-10-13T21:18:56.917Z,12.50
2022-10-13T21:21:26.864Z,13.63
2022-10-13T21:23:56.698Z,13.60
2022-10-13T21:26:27.616Z,12.33
2022-10-13T21:28:55.742Z,15.97
2022-10-13T21:31:24.991Z,13.93
2022-10-13T21:33:53.244Z,13.13
2022-10-13T21:36:23.047Z,13.67
2022-10-13T21:38:53.815Z,12.33
2022-10-13T21:41:22.756Z,13.97
2022-10-13T21:43:53.232Z,11.33
2022-10-13T21:46:23.443Z,14.93
2022-10-13T21:48:53.422Z,13.33
2022-10-13T21:51:23.462Z,13.67
2022-10-13T21:53:52.872Z,11.67
2022-10-13T21:56:21.768Z,19.50
2022-10-13T21:58:51.336Z,14.20
2022-10-13T22:01:20.600Z,13.80
2022-10-13T22:03:49.360Z,12.23
2022-10-13T22:06:19.772Z,14.83
2022-10-13T22:08:50.673Z,14.50
2022-10-13T22:11:19.969Z,12.73
2022-10-13T22:13:48.197Z,16.67
2022-10-13T22:16:19.938Z,15.60
2022-10-13T22:18:48.724Z,14.77
2022-10-13T22:21:18.414Z,11.83
2022-10-13T22:23:47.459Z,12.73
2022-10-13T22:26:16.991Z,9.50
2022-10-13T22:28:45.325Z,14.13
2022-10-13T22:31:15.221Z,11.30
2022-10-13T22:33:45.089Z,10.70
2022-10-13T22:36:16.986Z,16.43
2022-10-13T22:38:45.786Z,14.63
2022-10-13T22:41:14.795Z,10.53
2022-10-13T22:43:44.385Z,15.10
2022-10-13T22:46:12.620Z,16.27
2022-10-13T22:48:41.788Z,14.30
2022-10-13T22:51:12.672Z,12.60
2022-10-13T22:53:41.054Z,14.13
2022-10-13T22:56:11.597Z,13.17
2022-10-13T22:58:40.236Z,15.13
2022-10-13T23:01:09.640Z,15.93
2022-10-13T23:03:38.110Z,13.50
2022-10-13T23:06:07.626Z,14.87
2022-10-13T23:08:36.914Z,12.60
2022-10-13T23:11:04.951Z,13.77
2022-10-13T23:13:32.998Z,13.63
2022-10-13T23:16:05.401Z,15.53
2022-10-13T23:18:33.407Z,17.40
2022-10-13T23:21:04.600Z,13.77
2022-10-13T23:23:32.516Z,11.63
2022-10-13T23:26:05.358Z,14.87
2022-10-13T23:28:33.836Z,16.83
2022-10-13T23:31:02.882Z,16.40
2022-10-13T23:33:31.123Z,18.50
2022-10-13T23:36:01.271Z,17.50
2022-10-13T23:38:31.052Z,19.33
2022-10-13T23:41:05.855Z,14.80
2022-10-13T23:43:33.852Z,15.60
2022-10-13T23:46:02.073Z,11.20
2022-10-13T23:48:30.373Z,10.63
2022-10-13T23:50:58.473Z,10.50
2022-10-13T23:53:26.410Z,10.00
2022-10-13T23:55:54.352Z,15.43
2022-10-13T23:58:23.639Z,15.60
